Time;durP1;ratioP1;P1;durP2;ratioP2;P2;SDS_P1;SDS_P2;PMS_P1;PMS_P2;Temp;Humidity;BMP_temperature;BMP_pressure;BME280_temperature;BME280_humidity;BME280_pressure;Samples;Min_cycle;Max_cycle;Signal;HPM_P1;HPM_P2
2022/04/01 00:00:28;102740.00;0.34;178.30;0.00;0.00;0.62;;;;;13.40;1.00;;;;;;2264505;61;1576;-87
2022/04/01 00:02:55;151839.00;0.51;262.98;0.00;0.00;0.62;;;;;13.40;1.00;;;;;;2264675;61;921;-86
2022/04/01 00:05:23;139525.00;0.47;241.75;0.00;0.00;0.62;;;;;13.30;1.00;;;;;;2264685;61;1915;-85
2022/04/01 00:07:51;848052.00;2.83;1465.06;66687.00;0.22;116.04;;;;;13.20;1.00;;;;;;2264440;61;1579;-86
2022/04/01 00:10:21;1323532.00;4.41;2315.24;203924.00;0.68;352.68;;;;;13.20;1.00;;;;;;2264595;61;1778;-86
2022/04/01 00:12:48;446768.00;1.49;770.22;98393.00;0.33;170.80;;;;;13.30;1.00;;;;;;2264542;61;1110;-87
2022/04/01 00:15:16;187469.00;0.62;324.35;0.00;0.00;0.62;;;;;13.00;1.00;;;;;;2264565;61;1658;-87
2022/04/01 00:17:45;145080.00;0.48;251.33;0.00;0.00;0.62;;;;;13.00;1.00;;;;;;2264485;61;1464;-86
2022/04/01 00:20:13;176830.00;0.59;306.03;0.00;0.00;0.62;;;;;12.90;1.00;;;;;;2264641;61;1078;-87
2022/04/01 00:22:42;120990.00;0.40;209.79;0.00;0.00;0.62;;;;;13.10;1.00;;;;;;2264542;61;1550;-86
2022/04/01 00:25:10;57949.00;0.19;100.93;0.00;0.00;0.62;;;;;12.90;1.00;;;;;;2264554;61;1323;-87
2022/04/01 00:27:37;65588.00;0.22;114.14;0.00;0.00;0.62;;;;;12.60;1.00;;;;;;2264459;61;1933;-86
2022/04/01 00:30:06;78806.00;0.26;136.97;0.00;0.00;0.62;;;;;12.40;1.00;;;;;;2264479;61;1087;-87
2022/04/01 00:32:33;284189.00;0.95;490.74;39639.00;0.13;69.26;;;;;12.60;1.00;;;;;;2264364;61;1067;-85
2022/04/01 00:35:02;318694.00;1.06;550.05;20238.00;0.07;35.68;;;;;12.30;1.00;;;;;;2264535;61;1027;-87
2022/04/01 00:37:29;549863.00;1.83;947.72;57073.00;0.19;99.42;;;;;12.50;1.00;;;;;;2264374;61;1612;-85
2022/04/01 00:39:58;1220021.00;4.07;2126.46;69460.00;0.23;120.83;;;;;12.20;1.00;;;;;;2264568;61;1528;-86
2022/04/01 00:42:25;1273551.00;4.25;2223.78;98601.00;0.33;171.16;;;;;12.10;1.00;;;;;;2264503;61;1643;-85
2022/04/01 00:44:53;890336.00;2.97;1539.15;83600.00;0.28;145.26;;;;;12.00;1.00;;;;;;2264395;61;1011;-86
2022/04/01 00:47:20;1386643.00;4.62;2431.57;123894.00;0.41;214.80;;;;;12.00;1.00;;;;;;2264319;61;2000;-86
2022/04/01 00:49:48;1679773.00;5.60;2986.19;150374.00;0.50;260.45;;;;;12.00;1.00;;;;;;2264396;61;1641;-86
2022/04/01 00:52:17;488396.00;1.63;841.85;75355.00;0.25;131.01;;;;;11.40;1.00;;;;;;2264496;61;1070;-86
2022/04/01 00:54:45;340018.00;1.13;586.70;73933.00;0.25;128.56;;;;;11.10;1.00;;;;;;2264489;61;1135;-85
2022/04/01 00:57:15;253502.00;0.85;437.97;101215.00;0.34;175.67;;;;;10.70;1.00;;;;;;2264539;61;1246;-86
2022/04/01 00:59:43;159795.00;0.53;276.69;0.00;0.00;0.62;;;;;10.40;1.00;;;;;;2264400;61;1100;-87
2022/04/01 01:02:10;247764.00;0.83;428.11;0.00;0.00;0.62;;;;;9.70;1.00;;;;;;2264287;61;920;-86
2022/04/01 01:04:39;118843.00;0.40;206.09;0.00;0.00;0.62;;;;;9.50;1.00;;;;;;2264437;61;1688;-86
2022/04/01 01:07:07;270033.00;0.90;466.40;0.00;0.00;0.62;;;;;9.60;1.00;;;;;;2264205;61;2009;-86
2022/04/01 01:09:34;162416.00;0.54;281.20;0.00;0.00;0.62;;;;;9.90;1.00;;;;;;2264440;61;942;-87
2022/04/01 01:12:03;218095.00;0.73;377.07;0.00;0.00;0.62;;;;;10.00;1.00;;;;;;2264339;61;1567;-87
2022/04/01 01:14:34;210161.00;0.70;363.41;0.00;0.00;0.62;;;;;9.90;1.00;;;;;;2264234;61;920;-88
2022/04/01 01:17:05;155456.00;0.52;269.21;0.00;0.00;0.62;;;;;10.00;1.00;;;;;;2264369;61;1479;-85
2022/04/01 01:19:32;87695.00;0.29;152.33;0.00;0.00;0.62;;;;;10.10;1.00;;;;;;2264431;61;1000;-86
2022/04/01 01:22:00;1079954.00;3.60;1874.61;81636.00;0.27;141.86;;;;;10.40;1.00;;;;;;2264363;61;1125;-86
2022/04/01 01:24:31;1721267.00;5.74;3066.82;197724.00;0.66;342.01;;;;;10.60;1.00;;;;;;2264317;61;1563;-86
2022/04/01 01:27:01;1500245.00;5.00;2643.58;7040.00;0.02;12.82;;;;;10.70;1.00;;;;;;2264240;61;1920;-85
2022/04/01 01:29:29;1507936.00;5.03;2658.06;44321.00;0.15;77.36;;;;;10.80;1.00;;;;;;2264304;61;1690;-86
2022/04/01 01:31:59;1190016.00;3.97;2072.18;94266.00;0.31;163.67;;;;;10.90;1.00;;;;;;2264339;61;1411;-86
2022/04/01 01:34:27;568171.00;1.89;979.29;93459.00;0.31;162.28;;;;;11.00;1.00;;;;;;2264335;61;1117;-85
2022/04/01 01:36:56;190746.00;0.64;329.99;0.00;0.00;0.62;;;;;11.30;1.00;;;;;;2264324;61;1507;-86
2022/04/01 01:39:27;90142.00;0.30;156.55;0.00;0.00;0.62;;;;;11.50;1.00;;;;;;2264365;61;1719;-85
2022/04/01 01:41:56;169447.00;0.56;293.31;0.00;0.00;0.62;;;;;11.40;1.00;;;;;;2264228;61;952;-86
2022/04/01 01:44:24;108898.00;0.36;188.93;0.00;0.00;0.62;;;;;11.20;1.00;;;;;;2264128;61;1441;-85
2022/04/01 01:46:55;122874.00;0.41;213.04;0.00;0.00;0.62;;;;;11.30;1.00;;;;;;2264112;61;1995;-85
2022/04/01 01:49:22;404931.00;1.35;698.28;890.00;0.00;2.16;;;;;11.20;1.00;;;;;;2264320;61;801;-87
2022/04/01 01:54:44;160475.00;0.53;277.86;0.00;0.00;0.62;;;;;11.10;1.00;;;;;;2264431;61;695;-85
2022/04/01 01:57:15;126962.00;0.42;220.09;0.00;0.00;0.62;;;;;11.00;1.00;;;;;;2264135;61;1481;-86
2022/04/01 01:59:44;1389573.00;4.63;2437.00;135458.00;0.45;234.74;;;;;11.00;1.00;;;;;;2264206;61;1525;-86
2022/04/01 02:02:11;1552078.00;5.17;2741.50;100165.00;0.33;173.86;;;;;10.80;1.00;;;;;;2264140;61;895;-86
2022/04/01 02:04:42;1208479.00;4.03;2105.56;190150.00;0.63;328.97;;;;;10.70;1.00;;;;;;2264239;61;1800;-86
2022/04/01 02:07:13;611530.00;2.04;1054.13;104059.00;0.35;180.58;;;;;10.80;1.00;;;;;;2264190;61;1926;-85
2022/04/01 02:09:43;702317.00;2.34;1211.26;90122.00;0.30;156.52;;;;;10.30;1.00;;;;;;2264118;61;1579;-86
2022/04/01 02:12:11;260717.00;0.87;450.38;79244.00;0.26;137.73;;;;;9.90;1.00;;;;;;2264372;61;1205;-85
2022/04/01 02:14:40;381519.00;1.27;658.04;0.00;0.00;0.62;;;;;10.30;1.00;;;;;;2264120;61;1444;-87
2022/04/01 02:17:09;214617.00;0.72;371.08;0.00;0.00;0.62;;;;;10.60;1.00;;;;;;2264063;61;1346;-85
2022/04/01 02:19:37;201515.00;0.67;348.53;0.00;0.00;0.62;;;;;10.50;1.00;;;;;;2263974;61;1671;-87
2022/04/01 02:22:10;142576.00;0.48;247.01;0.00;0.00;0.62;;;;;10.30;1.00;;;;;;2264257;61;1667;-86
2022/04/01 02:24:39;185300.00;0.62;320.62;0.00;0.00;0.62;;;;;9.80;1.00;;;;;;2264228;61;1500;-87
2022/04/01 02:27:07;725638.00;2.42;1251.73;11561.00;0.04;20.65;;;;;10.10;1.00;;;;;;2264105;61;1928;-86
2022/04/01 02:29:34;1180193.00;3.93;2054.45;84510.00;0.28;146.83;;;;;9.50;1.00;;;;;;2264055;61;914;-87
2022/04/01 02:32:03;1337029.00;4.46;2340.03;55417.00;0.18;96.55;;;;;9.60;1.00;;;;;;2264191;61;1618;-85
2022/04/01 02:34:33;1674362.00;5.58;2975.72;76534.00;0.26;133.05;;;;;9.90;1.00;;;;;;2264197;61;1470;-86
2022/04/01 02:37:04;759071.00;2.53;1309.83;152461.00;0.51;264.05;;;;;10.10;1.00;;;;;;2263989;61;1333;-85
2022/04/01 02:39:34;403853.00;1.35;696.43;104145.00;0.35;180.73;;;;;10.10;1.00;;;;;;2264172;61;1446;-84
2022/04/01 02:42:02;379302.00;1.26;654.23;91732.00;0.31;159.30;;;;;10.10;1.00;;;;;;2264081;61;1596;-86
2022/04/01 02:44:29;117782928.00;392.61;66188028.00;91684.00;0.31;159.22;;;;;9.80;1.00;;;;;;2264185;61;1465;-86
2022/04/01 02:46:57;509617.00;1.70;878.38;113565.00;0.38;196.98;;;;;10.00;1.00;;;;;;2264044;61;1918;-85
2022/04/01 02:49:30;465724.00;1.55;802.83;0.00;0.00;0.62;;;;;10.20;1.00;;;;;;2289451;40;3577;-86
2022/04/01 02:52:02;82148.00;0.27;142.75;0.00;0.00;0.62;;;;;10.00;1.00;;;;;;2264159;61;900;-86
2022/04/01 02:56:59;706633.00;2.36;1218.74;60526.00;0.20;105.39;;;;;9.00;1.00;;;;;;2265762;61;1409;-90
2022/04/01 02:59:26;1430542.00;4.77;2513.09;132566.00;0.44;229.75;;;;;9.00;1.00;;;;;;2263968;61;1505;-87
2022/04/01 03:01:55;1571702.00;5.24;2778.78;147594.00;0.49;255.66;;;;;9.40;1.00;;;;;;2264124;61;1465;-85
2022/04/01 03:04:23;1549153.00;5.16;2735.96;98021.00;0.33;170.16;;;;;8.80;1.00;;;;;;2278021;40;3712;-86
2022/04/01 03:06:54;828788.00;2.76;1431.38;132080.00;0.44;228.92;;;;;8.50;1.00;;;;;;2266508;61;1996;-87
2022/04/01 03:09:22;1352217.00;4.51;2367.99;126915.00;0.42;220.01;;;;;8.30;1.00;;;;;;2264105;61;1569;-87
2022/04/01 03:11:49;118631024.00;395.44;67629392.00;118080848.00;393.60;66691984.00;;;;;8.30;1.00;;;;;;2264040;61;1501;-87
2022/04/01 03:14:16;583689.00;1.95;1006.06;99916.00;0.33;173.43;;;;;7.90;1.00;;;;;;2263962;61;1643;-86
2022/04/01 03:16:45;625086.00;2.08;1077.56;86131.00;0.29;149.63;;;;;7.90;1.00;;;;;;2264021;61;1624;-85
2022/04/01 03:19:13;279067.00;0.93;481.93;0.00;0.00;0.62;;;;;8.00;1.00;;;;;;2264025;61;1416;-87
2022/04/01 03:21:41;281230.00;0.94;485.65;0.00;0.00;0.62;;;;;7.60;1.00;;;;;;2263978;61;1748;-88
2022/04/01 03:24:11;366864.00;1.22;632.85;0.00;0.00;0.62;;;;;7.60;1.80;;;;;;2263989;61;1734;-88
2022/04/01 03:26:38;226342.00;0.75;391.26;0.00;0.00;0.62;;;;;7.60;3.00;;;;;;2264044;61;1923;-87
2022/04/01 03:29:07;137272.00;0.46;237.87;0.00;0.00;0.62;;;;;7.70;2.50;;;;;;2264132;61;1604;-86
2022/04/01 03:31:35;141506.00;0.47;245.17;0.00;0.00;0.62;;;;;7.40;3.10;;;;;;2268607;40;3565;-87
2022/04/01 03:34:03;206508.00;0.69;357.13;0.00;0.00;0.62;;;;;7.60;2.50;;;;;;2267991;61;1545;-86
2022/04/01 03:36:30;289043.00;0.96;499.08;0.00;0.00;0.62;;;;;7.30;3.00;;;;;;2267255;61;1285;-86
2022/04/01 03:38:58;143693.00;0.48;248.94;0.00;0.00;0.62;;;;;7.60;4.40;;;;;;2264106;61;937;-85
2022/04/01 03:41:29;110461.00;0.37;191.63;0.00;0.00;0.62;;;;;7.60;3.10;;;;;;2264027;61;1066;-85
2022/04/01 03:44:00;225899.00;0.75;390.49;0.00;0.00;0.62;;;;;7.80;2.90;;;;;;2264081;61;1533;-86
2022/04/01 03:46:37;92561.00;0.31;160.73;0.00;0.00;0.62;;;;;7.70;2.40;;;;;;2263965;61;1952;-86
2022/04/01 03:49:12;179107.00;0.60;309.95;0.00;0.00;0.62;;;;;7.70;2.80;;;;;;2264042;61;1415;-86
2022/04/01 03:51:42;312288.00;1.04;539.04;0.00;0.00;0.62;;;;;7.40;4.30;;;;;;2264044;61;1492;-86
2022/04/01 03:54:10;272512.00;0.91;470.66;0.00;0.00;0.62;;;;;7.40;4.50;;;;;;2263952;61;1126;-87
2022/04/01 03:56:40;76248.00;0.25;132.56;0.00;0.00;0.62;;;;;7.50;3.10;;;;;;2264059;61;1307;-87
2022/04/01 03:59:09;152828.00;0.51;264.68;0.00;0.00;0.62;;;;;7.60;4.40;;;;;;2263774;61;1611;-86
2022/04/01 04:01:39;112263.00;0.37;194.73;0.00;0.00;0.62;;;;;8.00;1.20;;;;;;2264056;61;1684;-86
2022/04/01 04:04:09;40754.00;0.14;71.19;0.00;0.00;0.62;;;;;7.80;1.00;;;;;;2263647;61;1503;-85
2022/04/01 04:06:38;733643.00;2.45;1265.63;93941.00;0.31;163.11;;;;;7.80;2.30;;;;;;2264372;61;1919;-85
2022/04/01 04:09:05;2049765.00;6.83;3727.01;250053.00;0.83;432.04;;;;;7.90;1.30;;;;;;2264580;61;1640;-85
2022/04/01 04:11:34;1495462.00;4.98;2634.58;158156.00;0.53;273.86;;;;;7.80;1.70;;;;;;2264544;61;1056;-86
2022/04/01 04:14:06;1736138.00;5.79;3095.86;37033.00;0.12;64.75;;;;;8.30;1.00;;;;;;2264689;61;1542;-86
2022/04/01 04:16:40;1190937.00;3.97;2073.84;120310.00;0.40;208.62;;;;;8.50;1.00;;;;;;2264568;61;1647;-87
2022/04/01 04:19:10;771019.00;2.57;1330.63;173359.00;0.58;300.05;;;;;8.30;1.00;;;;;;2264529;61;1638;-86
2022/04/01 04:21:42;528338.00;1.76;910.63;99454.00;0.33;172.63;;;;;8.30;1.00;;;;;;2264626;61;1325;-86
2022/04/01 04:24:20;278363.00;0.93;480.72;97504.00;0.33;169.26;;;;;8.80;1.00;;;;;;2264701;61;1169;-87
2022/04/01 04:26:50;179430.00;0.60;310.51;0.00;0.00;0.62;;;;;9.10;1.00;;;;;;2264300;61;2005;-87
2022/04/01 04:29:20;269646.00;0.90;465.74;0.00;0.00;0.62;;;;;9.30;1.00;;;;;;2264471;61;983;-87
2022/04/01 04:31:57;74479.00;0.25;129.50;0.00;0.00;0.62;;;;;9.30;1.00;;;;;;2264486;61;1521;-88
2022/04/01 04:34:32;167133.00;0.56;289.33;0.00;0.00;0.62;;;;;9.70;1.00;;;;;;2264537;61;1529;-85
2022/04/01 04:37:02;288544.00;0.96;498.23;0.00;0.00;0.62;;;;;10.10;1.00;;;;;;2264335;61;1434;-86
2022/04/01 04:39:32;229235.00;0.76;396.23;0.00;0.00;0.62;;;;;10.30;1.00;;;;;;2264486;61;1726;-88
2022/04/01 04:42:01;33882.00;0.11;59.30;0.00;0.00;0.62;;;;;10.00;1.00;;;;;;2264573;61;1703;-87
2022/04/01 04:44:30;58141.00;0.19;101.26;0.00;0.00;0.62;;;;;9.90;1.00;;;;;;2264459;61;1592;-87
2022/04/01 04:46:58;116882.00;0.39;202.70;0.00;0.00;0.62;;;;;10.10;1.00;;;;;;2264511;61;1997;-87
2022/04/01 04:49:28;126422.00;0.42;219.16;0.00;0.00;0.62;;;;;10.30;1.00;;;;;;2264475;61;953;-86
2022/04/01 04:51:57;88288.00;0.29;153.35;0.00;0.00;0.62;;;;;10.20;1.00;;;;;;2264431;61;1039;-86
2022/04/01 04:54:26;166715.00;0.56;288.61;0.00;0.00;0.62;;;;;10.30;1.00;;;;;;2264408;61;1031;-84
2022/04/01 04:56:57;325351.00;1.08;561.50;0.00;0.00;0.62;;;;;10.30;1.00;;;;;;2264433;61;1634;-87
2022/04/01 04:59:24;164266.00;0.55;284.39;0.00;0.00;0.62;;;;;10.20;1.00;;;;;;2264462;61;1062;-86
2022/04/01 05:02:01;335473.00;1.12;578.89;0.00;0.00;0.62;;;;;9.90;1.00;;;;;;2264345;61;1487;-85
2022/04/01 05:04:45;225704.00;0.75;390.16;0.00;0.00;0.62;;;;;9.90;1.00;;;;;;2264317;61;1034;-88
2022/04/01 05:07:33;208995.00;0.70;361.41;0.00;0.00;0.62;;;;;9.60;1.00;;;;;;2264283;61;1923;-88
2022/04/01 05:10:07;219185.00;0.73;378.94;0.00;0.00;0.62;;;;;9.30;1.00;;;;;;2264367;61;1099;-88
2022/04/01 05:12:51;124371048.00;414.57;77939144.00;0.00;0.00;0.62;;;;;9.50;1.00;;;;;;2264332;61;1022;-87
2022/04/01 05:15:25;188180.00;0.63;325.57;0.00;0.00;0.62;;;;;9.90;1.00;;;;;;2264238;61;1562;-86
2022/04/01 05:18:01;222093.00;0.74;383.94;0.00;0.00;0.62;;;;;10.30;1.00;;;;;;2263961;61;1459;-86
2022/04/01 05:20:30;196574.00;0.66;340.03;10181.00;0.03;18.26;;;;;10.40;1.00;;;;;;2264280;61;1161;-87
2022/04/01 05:23:11;75659.00;0.25;131.54;0.00;0.00;0.62;;;;;10.10;1.00;;;;;;2264201;61;1627;-87
2022/04/01 05:25:43;131340.00;0.44;227.64;0.00;0.00;0.62;;;;;10.10;1.00;;;;;;2264392;61;1044;-85
2022/04/01 05:28:20;804918.00;2.68;1389.70;48425.00;0.16;84.46;;;;;10.10;1.00;;;;;;2264020;61;1927;-86
2022/04/01 05:30:50;1536189.00;5.12;2711.40;146029.00;0.49;252.96;;;;;9.90;1.00;;;;;;2264393;61;1004;-85
2022/04/01 05:33:25;1034523.00;3.45;1793.71;93419.00;0.31;162.21;;;;;9.90;1.00;;;;;;2264181;61;1102;-84
2022/04/01 05:35:54;1004656.00;3.35;1740.72;76479.00;0.25;132.95;;;;;10.00;1.00;;;;;;2264338;61;1735;-86
2022/04/01 05:38:22;119407016.00;398.02;68966464.00;159431.00;0.53;276.06;;;;;9.40;1.00;;;;;;2264299;61;1263;-86
2022/04/01 05:40:51;636469.00;2.12;1097.23;100494.00;0.33;174.42;;;;;9.00;1.00;;;;;;2264170;61;1018;-86
2022/04/01 05:43:18;714227.00;2.38;1231.92;118840.00;0.40;206.08;;;;;9.40;1.00;;;;;;2264217;61;1004;-85
2022/04/01 05:45:45;372893.00;1.24;643.21;87630.00;0.29;152.22;;;;;9.80;1.00;;;;;;2264147;61;2139;-86
2022/04/01 05:48:13;606763.00;2.02;1045.90;89380.00;0.30;155.24;;;;;10.30;1.00;;;;;;2264138;61;1912;-87
2022/04/01 05:50:41;331996.00;1.11;572.92;83026.00;0.28;144.26;;;;;10.50;1.00;;;;;;2264283;61;1466;-86
2022/04/01 05:53:11;203917.00;0.68;352.67;91981.00;0.31;159.73;;;;;10.80;1.00;;;;;;2264313;61;1437;-86
2022/04/01 05:55:39;205088.00;0.68;354.68;94298.00;0.31;163.73;;;;;10.90;1.00;;;;;;2264199;61;2159;-85
2022/04/01 05:58:07;14700.00;0.05;26.09;0.00;0.00;0.62;;;;;11.00;1.00;;;;;;2264004;61;1425;-85
2022/04/01 06:00:41;62497.00;0.21;108.79;0.00;0.00;0.62;;;;;11.00;1.00;;;;;;2264051;61;1534;-86
2022/04/01 06:03:32;0.00;0.00;0.62;0.00;0.00;0.62;;;;;10.90;1.00;;;;;;2264173;61;2174;-87
2022/04/01 06:06:10;353423.00;1.18;609.74;102573.00;0.34;178.01;;;;;10.50;1.00;;;;;;2264232;61;1118;-85
2022/04/01 06:08:48;129927.00;0.43;225.20;0.00;0.00;0.62;;;;;10.50;1.00;;;;;;2264156;61;1908;-85
2022/04/01 06:11:24;20096.00;0.07;35.44;0.00;0.00;0.62;;;;;10.30;1.00;;;;;;2264277;61;914;-86
2022/04/01 06:14:02;35971.00;0.12;62.92;0.00;0.00;0.62;;;;;9.70;1.00;;;;;;2264144;61;1649;-85
2022/04/01 06:16:35;47712.00;0.16;83.23;0.00;0.00;0.62;;;;;9.60;1.00;;;;;;2264102;61;1477;-88
2022/04/01 06:19:16;133920.00;0.45;232.09;0.00;0.00;0.62;;;;;9.10;1.00;;;;;;2264167;61;1751;-86
2022/04/01 06:21:55;32692.00;0.11;57.24;0.00;0.00;0.62;;;;;9.20;1.00;;;;;;2264167;61;1278;-87
2022/04/01 06:24:33;149012.00;0.50;258.10;0.00;0.00;0.62;;;;;9.50;1.00;;;;;;2264136;61;1561;-86
2022/04/01 06:27:02;124539.00;0.42;215.91;44536.00;0.15;77.74;;;;;9.60;1.00;;;;;;2264137;61;1477;-86
2022/04/01 06:29:37;105196.00;0.35;182.54;0.00;0.00;0.62;;;;;9.60;1.00;;;;;;2263707;61;2010;-87
2022/04/01 06:32:07;80217.00;0.27;139.41;0.00;0.00;0.62;;;;;9.90;1.00;;;;;;2264037;61;1032;-85
2022/04/01 06:34:48;24384.00;0.08;42.86;0.00;0.00;0.62;;;;;10.10;1.00;;;;;;2264077;61;1968;-85
2022/04/01 06:37:28;121455.00;0.40;210.59;0.00;0.00;0.62;;;;;10.40;1.00;;;;;;2264101;61;1434;-84
2022/04/01 06:40:05;98013.00;0.33;170.14;0.00;0.00;0.62;;;;;10.60;1.00;;;;;;2264005;61;1129;-85
2022/04/01 06:42:37;131698.00;0.44;228.26;0.00;0.00;0.62;;;;;10.40;1.00;;;;;;2264223;61;1027;-86
2022/04/01 06:45:05;154871.00;0.52;268.20;0.00;0.00;0.62;;;;;10.10;1.00;;;;;;2271824;56;3789;-85
2022/04/01 06:47:32;589704.00;1.97;1016.45;11949.00;0.04;21.33;;;;;9.80;1.00;;;;;;2260524;61;1987;-88
2022/04/01 06:55:06;177971.00;0.59;308.00;0.00;0.00;0.62;;;;;9.60;1.00;;;;;;2262111;61;1510;-87
2022/04/01 06:57:33;272193.00;0.91;470.11;0.00;0.00;0.62;;;;;9.50;1.00;;;;;;2260009;61;2213;-86
2022/04/01 07:00:00;234449.00;0.78;405.20;44640.00;0.15;77.92;;;;;9.00;1.00;;;;;;2260153;61;1480;-88
2022/04/01 07:02:27;256131.00;0.85;442.50;0.00;0.00;0.62;;;;;8.90;1.00;;;;;;2260004;61;1130;-86
2022/04/01 07:04:54;230838.00;0.77;398.99;16389.00;0.05;29.02;;;;;9.10;1.00;;;;;;2260027;61;1531;-86
2022/04/01 07:07:21;291601.00;0.97;503.48;0.00;0.00;0.62;;;;;9.10;1.00;;;;;;2357612;40;3803;-86
2022/04/01 07:09:49;144261.00;0.48;249.92;0.00;0.00;0.62;;;;;9.20;1.00;;;;;;2284946;55;3755;-86
2022/04/01 07:12:19;233146.00;0.78;402.96;0.00;0.00;0.62;;;;;8.90;1.00;;;;;;2302571;40;3602;-87
2022/04/01 07:14:46;144680.00;0.48;250.64;0.00;0.00;0.62;;;;;9.10;1.00;;;;;;2267912;61;1731;-87
2022/04/01 07:17:13;492566.00;1.64;849.03;0.00;0.00;0.62;;;;;8.70;1.00;;;;;;2273027;56;3744;-88
2022/04/01 07:19:41;388577.00;1.30;670.17;0.00;0.00;0.62;;;;;8.70;1.00;;;;;;2339630;40;3564;-87
2022/04/01 07:22:08;388840.00;1.30;670.62;0.00;0.00;0.62;;;;;8.70;1.00;;;;;;2302727;40;3765;-87
2022/04/01 07:27:04;792478.00;2.64;1368.01;0.00;0.00;0.62;;;;;7.90;1.00;;;;;;2265700;61;1415;-84
2022/04/01 07:29:32;475879.00;1.59;820.31;3706.00;0.01;7.04;;;;;8.00;1.00;;;;;;2274679;56;3807;-85
2022/04/01 07:34:47;193607.00;0.65;334.92;0.00;0.00;0.62;;;;;8.80;1.00;;;;;;2267666;61;703;-86
2022/04/01 07:39:49;1233135.00;4.11;2150.24;121514.00;0.41;210.69;;;;;8.90;1.00;;;;;;2306846;41;1856;-86
2022/04/01 07:42:18;879637.00;2.93;1520.38;52631.00;0.18;91.74;;;;;9.00;1.00;;;;;;2272050;55;3800;-87
2022/04/01 07:44:47;1029170.00;3.43;1784.20;71993.00;0.24;125.20;;;;;9.40;1.00;;;;;;2268348;61;1656;-85
2022/04/01 07:47:14;1118362.00;3.73;1943.29;26390.00;0.09;46.33;;;;;9.40;1.00;;;;;;2266246;61;1423;-85
2022/04/01 07:49:42;1209187.00;4.03;2106.84;46967.00;0.16;81.94;;;;;9.20;1.00;;;;;;2264350;61;1936;-84
2022/04/01 07:54:44;1373899.00;4.58;2408.00;8139.00;0.03;14.72;;;;;9.20;1.00;;;;;;2307096;40;3645;-86
2022/04/01 07:57:14;1146148.00;3.82;1993.15;99871.00;0.33;173.35;;;;;9.00;1.00;;;;;;2269848;55;3815;-86
2022/04/01 07:59:41;1192662.00;3.98;2076.96;93554.00;0.31;162.44;;;;;9.20;1.00;;;;;;2302310;56;3793;-87
2022/04/01 08:02:13;627896.00;2.09;1082.41;0.00;0.00;0.62;;;;;9.40;1.00;;;;;;2325187;40;3796;-88
2022/04/01 08:12:16;1529944.00;5.10;2699.59;63201.00;0.21;110.01;;;;;9.20;1.00;;;;;;2265784;61;1424;-87
2022/04/01 08:14:44;1101483.00;3.67;1913.08;92800.00;0.31;161.14;;;;;9.20;1.00;;;;;;2264509;61;1427;-88
2022/04/01 08:17:14;1093198.00;3.64;1898.26;72789.00;0.24;126.58;;;;;9.50;1.00;;;;;;2262160;61;1449;-86
2022/04/01 08:19:42;1210830.00;4.04;2109.81;42970.00;0.14;75.03;;;;;9.80;1.00;;;;;;2266813;56;3762;-85
2022/04/01 08:22:11;1476448.00;4.92;2598.88;110518.00;0.37;191.72;;;;;9.70;1.00;;;;;;2261259;61;1121;-88
2022/04/01 08:24:38;1053146.00;3.51;1826.83;98493.00;0.33;170.97;;;;;9.80;1.00;;;;;;2261264;61;830;-87
2022/04/01 08:27:05;1233829.00;4.11;2151.50;137764.00;0.46;238.72;;;;;9.90;1.00;;;;;;2260408;61;1742;-86
2022/04/01 08:29:34;978591.00;3.26;1694.59;115703.00;0.39;200.67;;;;;10.00;1.00;;;;;;2260346;61;1927;-86
2022/04/01 08:32:01;119974936.00;399.92;69956112.00;135880.00;0.45;235.47;;;;;10.10;1.00;;;;;;2260651;61;1131;-85
2022/04/01 08:37:07;711279.00;2.37;1226.80;105083.00;0.35;182.34;;;;;10.50;1.00;;;;;;2266038;61;1407;-87
2022/04/01 08:39:34;386548.00;1.29;666.68;91026.00;0.30;158.08;;;;;10.00;1.00;;;;;;2264217;61;1695;-86
2022/04/01 08:44:31;402842.00;1.34;694.69;91679.00;0.31;159.21;;;;;9.50;1.00;;;;;;2265965;61;1406;-86
2022/04/01 08:46:58;325256.00;1.08;561.33;98284.00;0.33;170.61;;;;;9.60;1.00;;;;;;2262684;61;1553;-87
2022/04/01 08:49:25;208183.00;0.69;360.01;88806.00;0.30;154.25;;;;;9.80;1.00;;;;;;2260341;61;1922;-86
2022/04/01 08:51:52;272310.00;0.91;470.32;99752.00;0.33;173.14;;;;;10.00;1.00;;;;;;2260216;61;1015;-86
2022/04/01 08:54:21;275400.00;0.92;475.63;101086.00;0.34;175.45;;;;;10.20;1.00;;;;;;2273395;40;3742;-86
2022/04/01 08:56:48;313847.00;1.05;541.72;93541.00;0.31;162.42;;;;;10.20;1.00;;;;;;2266834;61;1261;-86
2022/04/01 09:01:48;441967.00;1.47;761.97;0.00;0.00;0.62;;;;;9.90;1.00;;;;;;2266337;61;1432;-87
2022/04/01 09:04:22;95595.00;0.32;165.97;0.00;0.00;0.62;;;;;10.20;1.00;;;;;;2264282;61;992;-87
2022/04/01 09:06:50;282707.00;0.94;488.19;0.00;0.00;0.62;;;;;10.30;1.00;;;;;;2264223;61;1363;-86
2022/04/01 09:09:29;186265.00;0.62;322.28;0.00;0.00;0.62;;;;;10.40;1.00;;;;;;2264240;61;1912;-87
2022/04/01 09:12:08;112936.00;0.38;195.90;0.00;0.00;0.62;;;;;10.30;1.00;;;;;;2282192;40;3790;-84
2022/04/01 09:17:12;151254.00;0.50;261.97;0.00;0.00;0.62;;;;;9.90;1.00;;;;;;1330629;40;3102;-88
2022/04/01 09:19:40;203243.00;0.68;351.51;0.00;0.00;0.62;;;;;9.40;1.00;;;;;;2270537;40;3598;-86
2022/04/01 09:22:21;522551.00;1.74;900.66;0.00;0.00;0.62;;;;;9.30;1.00;;;;;;2297820;40;3628;-87
2022/04/01 09:24:58;121449.00;0.40;210.58;0.00;0.00;0.62;;;;;9.20;1.00;;;;;;2275484;56;3753;-87
2022/04/01 09:27:40;260863.00;0.87;450.63;0.00;0.00;0.62;;;;;8.90;1.00;;;;;;2290711;40;3638;-86
2022/04/01 09:30:10;121873.00;0.41;211.31;0.00;0.00;0.62;;;;;9.00;1.00;;;;;;2264189;61;2026;-85
2022/04/01 09:32:38;232901.00;0.78;402.54;0.00;0.00;0.62;;;;;8.90;1.00;;;;;;2264257;61;975;-87
2022/04/01 09:35:07;206429.00;0.69;356.99;0.00;0.00;0.62;;;;;8.70;1.00;;;;;;2264049;61;1036;-87
2022/04/01 09:37:39;208981.00;0.70;361.38;0.00;0.00;0.62;;;;;8.50;1.00;;;;;;2264171;61;1588;-88
2022/04/01 09:40:10;64304.00;0.21;111.92;0.00;0.00;0.62;;;;;9.00;1.00;;;;;;2264185;61;1616;-87
2022/04/01 09:42:38;90635.00;0.30;157.40;0.00;0.00;0.62;;;;;9.60;1.00;;;;;;2282890;55;3736;-87
2022/04/01 09:45:06;103963.00;0.35;180.41;0.00;0.00;0.62;;;;;9.60;1.00;;;;;;2310878;41;3806;-86
2022/04/01 09:47:38;88701.00;0.30;154.06;0.00;0.00;0.62;;;;;9.80;1.00;;;;;;2265499;61;1590;-86
2022/04/01 09:50:17;208914.00;0.70;361.27;9115.00;0.03;16.42;;;;;10.10;1.00;;;;;;2264015;61;2013;-89
2022/04/01 09:52:46;180925.00;0.60;313.08;0.00;0.00;0.62;;;;;10.00;1.00;;;;;;2264094;61;1949;-86
2022/04/01 09:55:15;180801.00;0.60;312.87;0.00;0.00;0.62;;;;;9.70;1.00;;;;;;2286816;56;3744;-86
2022/04/01 10:00:13;433812.00;1.45;747.94;0.00;0.00;0.62;;;;;9.70;1.00;;;;;;2281718;40;3524;-87
2022/04/01 10:02:40;124710.00;0.42;216.21;0.00;0.00;0.62;;;;;9.10;1.00;;;;;;2268117;61;1160;-86
2022/04/01 10:05:08;91065.00;0.30;158.15;0.00;0.00;0.62;;;;;9.20;1.00;;;;;;2268136;61;1743;-88
2022/04/01 10:07:36;176963.00;0.59;306.26;0.00;0.00;0.62;;;;;9.50;1.00;;;;;;2265220;61;1364;-89
2022/04/01 10:10:06;18163.00;0.06;32.09;0.00;0.00;0.62;;;;;9.00;1.00;;;;;;2264080;61;1993;-86
2022/04/01 10:12:42;130654.00;0.44;226.46;0.00;0.00;0.62;;;;;9.20;1.00;;;;;;2264290;61;1515;-86
2022/04/01 10:15:11;40037.00;0.13;69.95;0.00;0.00;0.62;;;;;9.80;1.00;;;;;;2264297;61;990;-87
2022/04/01 10:17:40;330549.00;1.10;570.43;20637.00;0.07;36.37;;;;;10.50;1.00;;;;;;2264206;61;1651;-86
2022/04/01 10:20:09;728398.00;2.43;1256.52;158703.00;0.53;274.80;;;;;10.60;1.00;;;;;;2264276;61;1086;-85
2022/04/01 10:22:37;767970.00;2.56;1325.32;129749.00;0.43;224.90;;;;;10.80;1.00;;;;;;2264294;61;1743;-88
2022/04/01 10:25:14;2377874.00;7.93;4431.30;144571.00;0.48;250.45;;;;;9.90;1.00;;;;;;2263939;61;1526;-86
2022/04/01 10:27:48;1247275.00;4.16;2175.93;11227.00;0.04;20.07;;;;;9.60;1.00;;;;;;2263636;61;1315;-86
2022/04/01 10:30:18;1082786.00;3.61;1879.67;19795.00;0.07;34.92;;;;;9.90;1.00;;;;;;2263888;61;2010;-86
2022/04/01 10:32:47;952511.00;3.18;1648.54;37198.00;0.12;65.04;;;;;10.20;1.00;;;;;;2264027;61;1172;-85
2022/04/01 10:35:26;1029410.00;3.43;1784.63;50697.00;0.17;88.39;;;;;10.60;1.00;;;;;;2264023;61;1243;-85